sensor_id;sensor_type;location;lat;lon;timestamp;temperature;humidity
44707;DHT22;30433;45.596;8.408;2024-03-22T00:00:58;11.10;99.40
44707;DHT22;30433;45.596;8.408;2024-03-22T00:07:00;11.70;96.70
44707;DHT22;30433;45.596;8.408;2024-03-22T00:13:05;11.90;96.50
44707;DHT22;30433;45.596;8.408;2024-03-22T00:19:07;11.80;96.50
44707;DHT22;30433;45.596;8.408;2024-03-22T00:25:09;12.00;95.00
44707;DHT22;30433;45.596;8.408;2024-03-22T00:31:13;12.10;96.60
44707;DHT22;30433;45.596;8.408;2024-03-22T00:37:15;11.60;95.80
44707;DHT22;30433;45.596;8.408;2024-03-22T00:43:17;11.70;95.40
44707;DHT22;30433;45.596;8.408;2024-03-22T00:49:20;11.60;96.10
44707;DHT22;30433;45.596;8.408;2024-03-22T00:55:23;11.10;97.40
44707;DHT22;30433;45.596;8.408;2024-03-22T01:01:25;11.40;99.20
44707;DHT22;30433;45.596;8.408;2024-03-22T01:07:29;11.90;99.90
44707;DHT22;30433;45.596;8.408;2024-03-22T01:13:31;11.40;99.90
44707;DHT22;30433;45.596;8.408;2024-03-22T01:19:33;11.10;99.90
44707;DHT22;30433;45.596;8.408;2024-03-22T01:25:37;11.20;99.90
44707;DHT22;30433;45.596;8.408;2024-03-22T01:31:39;11.20;99.90
44707;DHT22;30433;45.596;8.408;2024-03-22T01:37:41;11.10;99.90
44707;DHT22;30433;45.596;8.408;2024-03-22T01:43:45;10.70;99.90
44707;DHT22;30433;45.596;8.408;2024-03-22T01:49:47;10.80;99.90
44707;DHT22;30433;45.596;8.408;2024-03-22T01:55:50;10.70;99.90
44707;DHT22;30433;45.596;8.408;2024-03-22T02:01:54;10.80;99.90
44707;DHT22;30433;45.596;8.408;2024-03-22T02:07:56;10.90;99.90
44707;DHT22;30433;45.596;8.408;2024-03-22T02:13:58;11.20;99.90
44707;DHT22;30433;45.596;8.408;2024-03-22T02:20:02;10.70;99.90
44707;DHT22;30433;45.596;8.408;2024-03-22T02:26:07;10.70;99.90
44707;DHT22;30433;45.596;8.408;2024-03-22T02:32:10;10.60;99.90
44707;DHT22;30433;45.596;8.408;2024-03-22T02:38:12;10.90;99.90
44707;DHT22;30433;45.596;8.408;2024-03-22T02:44:16;10.80;99.90
44707;DHT22;30433;45.596;8.408;2024-03-22T02:50:18;10.60;99.90
44707;DHT22;30433;45.596;8.408;2024-03-22T02:56:20;10.70;99.90
44707;DHT22;30433;45.596;8.408;2024-03-22T03:02:23;11.00;99.90
44707;DHT22;30433;45.596;8.408;2024-03-22T03:08:26;10.50;99.90
44707;DHT22;30433;45.596;8.408;2024-03-22T03:14:28;10.50;99.90
44707;DHT22;30433;45.596;8.408;2024-03-22T03:20:31;10.60;99.90
44707;DHT22;30433;45.596;8.408;2024-03-22T03:26:33;10.70;99.90
44707;DHT22;30433;45.596;8.408;2024-03-22T03:32:36;10.80;99.90
44707;DHT22;30433;45.596;8.408;2024-03-22T03:38:39;10.70;99.90
44707;DHT22;30433;45.596;8.408;2024-03-22T03:44:42;10.80;99.90
44707;DHT22;30433;45.596;8.408;2024-03-22T03:50:52;11.00;99.90
44707;DHT22;30433;45.596;8.408;2024-03-22T03:56:55;11.00;99.90
44707;DHT22;30433;45.596;8.408;2024-03-22T04:02:57;11.10;99.90
44707;DHT22;30433;45.596;8.408;2024-03-22T04:09:00;11.20;99.90
44707;DHT22;30433;45.596;8.408;2024-03-22T04:15:06;11.30;99.90
44707;DHT22;30433;45.596;8.408;2024-03-22T04:21:08;11.40;99.90
44707;DHT22;30433;45.596;8.408;2024-03-22T04:27:10;11.30;99.90
44707;DHT22;30433;45.596;8.408;2024-03-22T04:33:14;11.30;99.90
44707;DHT22;30433;45.596;8.408;2024-03-22T04:39:16;11.10;99.90
44707;DHT22;30433;45.596;8.408;2024-03-22T04:45:18;11.00;99.90
44707;DHT22;30433;45.596;8.408;2024-03-22T04:51:22;11.10;99.90
44707;DHT22;30433;45.596;8.408;2024-03-22T04:57:24;11.20;99.90
44707;DHT22;30433;45.596;8.408;2024-03-22T05:03:26;11.10;99.90
44707;DHT22;30433;45.596;8.408;2024-03-22T05:09:29;11.00;99.90
44707;DHT22;30433;45.596;8.408;2024-03-22T05:15:32;10.80;99.90
44707;DHT22;30433;45.596;8.408;2024-03-22T05:21:35;10.80;99.90
44707;DHT22;30433;45.596;8.408;2024-03-22T05:27:38;10.30;99.90
44707;DHT22;30433;45.596;8.408;2024-03-22T05:33:40;10.30;99.90
44707;DHT22;30433;45.596;8.408;2024-03-22T05:39:42;10.40;99.90
44707;DHT22;30433;45.596;8.408;2024-03-22T05:45:46;10.20;99.90
44707;DHT22;30433;45.596;8.408;2024-03-22T05:51:49;10.00;99.90
44707;DHT22;30433;45.596;8.408;2024-03-22T05:57:51;9.80;99.90
44707;DHT22;30433;45.596;8.408;2024-03-22T06:03:54;10.30;99.90
44707;DHT22;30433;45.596;8.408;2024-03-22T06:09:56;10.40;99.90
44707;DHT22;30433;45.596;8.408;2024-03-22T06:15:59;10.20;99.90
44707;DHT22;30433;45.596;8.408;2024-03-22T06:22:03;10.40;99.90
44707;DHT22;30433;45.596;8.408;2024-03-22T06:28:05;10.40;99.90
44707;DHT22;30433;45.596;8.408;2024-03-22T06:34:07;10.60;99.90
44707;DHT22;30433;45.596;8.408;2024-03-22T06:40:12;10.80;99.90
44707;DHT22;30433;45.596;8.408;2024-03-22T06:46:14;10.80;99.90
44707;DHT22;30433;45.596;8.408;2024-03-22T06:52:16;11.30;99.90
44707;DHT22;30433;45.596;8.408;2024-03-22T06:58:20;11.20;99.90
44707;DHT22;30433;45.596;8.408;2024-03-22T07:04:25;11.40;99.90
44707;DHT22;30433;45.596;8.408;2024-03-22T07:10:27;12.00;99.90
44707;DHT22;30433;45.596;8.408;2024-03-22T07:16:31;12.00;99.90
44707;DHT22;30433;45.596;8.408;2024-03-22T07:22:33;12.00;99.90
44707;DHT22;30433;45.596;8.408;2024-03-22T07:28:35;12.30;99.90
44707;DHT22;30433;45.596;8.408;2024-03-22T07:34:39;12.60;99.90
44707;DHT22;30433;45.596;8.408;2024-03-22T07:40:41;13.10;99.90
44707;DHT22;30433;45.596;8.408;2024-03-22T07:46:44;13.60;99.90
44707;DHT22;30433;45.596;8.408;2024-03-22T07:52:47;14.20;99.90
44707;DHT22;30433;45.596;8.408;2024-03-22T07:58:51;14.50;99.90
44707;DHT22;30433;45.596;8.408;2024-03-22T08:04:53;14.80;99.90
44707;DHT22;30433;45.596;8.408;2024-03-22T08:10:56;14.90;99.90
44707;DHT22;30433;45.596;8.408;2024-03-22T08:16:58;14.80;99.90
44707;DHT22;30433;45.596;8.408;2024-03-22T08:23:01;14.80;99.90
44707;DHT22;30433;45.596;8.408;2024-03-22T08:29:05;15.10;99.90
44707;DHT22;30433;45.596;8.408;2024-03-22T08:35:07;14.90;99.90
44707;DHT22;30433;45.596;8.408;2024-03-22T08:41:10;14.90;99.90
44707;DHT22;30433;45.596;8.408;2024-03-22T08:47:13;14.80;99.90
44707;DHT22;30433;45.596;8.408;2024-03-22T08:53:15;14.80;99.90
44707;DHT22;30433;45.596;8.408;2024-03-22T08:59:17;14.70;99.90
44707;DHT22;30433;45.596;8.408;2024-03-22T09:05:21;14.90;99.90
44707;DHT22;30433;45.596;8.408;2024-03-22T09:11:23;15.40;99.90
44707;DHT22;30433;45.596;8.408;2024-03-22T09:17:26;15.60;99.90
44707;DHT22;30433;45.596;8.408;2024-03-22T09:23:30;15.60;99.90
44707;DHT22;30433;45.596;8.408;2024-03-22T09:29:32;15.90;99.90
44707;DHT22;30433;45.596;8.408;2024-03-22T09:35:34;15.90;99.90
44707;DHT22;30433;45.596;8.408;2024-03-22T09:41:42;15.90;99.90
44707;DHT22;30433;45.596;8.408;2024-03-22T09:47:45;16.10;99.90
44707;DHT22;30433;45.596;8.408;2024-03-22T09:53:47;16.50;99.90
44707;DHT22;30433;45.596;8.408;2024-03-22T09:59:52;16.40;99.90
44707;DHT22;30433;45.596;8.408;2024-03-22T10:05:54;16.50;99.90
44707;DHT22;30433;45.596;8.408;2024-03-22T10:11:57;16.70;99.90
44707;DHT22;30433;45.596;8.408;2024-03-22T10:18:00;16.90;99.90
44707;DHT22;30433;45.596;8.408;2024-03-22T10:24:02;16.90;99.90
44707;DHT22;30433;45.596;8.408;2024-03-22T10:30:08;17.20;99.90
44707;DHT22;30433;45.596;8.408;2024-03-22T10:36:13;17.20;99.90
44707;DHT22;30433;45.596;8.408;2024-03-22T10:42:15;16.90;99.90
44707;DHT22;30433;45.596;8.408;2024-03-22T10:48:17;17.50;99.90
44707;DHT22;30433;45.596;8.408;2024-03-22T10:54:27;17.40;99.90
44707;DHT22;30433;45.596;8.408;2024-03-22T11:00:31;17.40;99.90
44707;DHT22;30433;45.596;8.408;2024-03-22T11:06:33;17.60;99.90
44707;DHT22;30433;45.596;8.408;2024-03-22T11:12:39;17.70;99.90
44707;DHT22;30433;45.596;8.408;2024-03-22T11:18:41;17.80;99.90
44707;DHT22;30433;45.596;8.408;2024-03-22T11:24:43;18.20;99.90
44707;DHT22;30433;45.596;8.408;2024-03-22T11:30:47;18.00;99.90
44707;DHT22;30433;45.596;8.408;2024-03-22T11:36:49;18.10;99.90
44707;DHT22;30433;45.596;8.408;2024-03-22T11:42:52;18.20;99.90
44707;DHT22;30433;45.596;8.408;2024-03-22T11:48:57;17.90;99.90
44707;DHT22;30433;45.596;8.408;2024-03-22T11:55:00;18.30;99.90
44707;DHT22;30433;45.596;8.408;2024-03-22T12:01:03;18.30;99.90
44707;DHT22;30433;45.596;8.408;2024-03-22T12:07:10;18.30;99.90
44707;DHT22;30433;45.596;8.408;2024-03-22T12:13:12;18.40;99.90
44707;DHT22;30433;45.596;8.408;2024-03-22T12:19:14;18.60;99.90
44707;DHT22;30433;45.596;8.408;2024-03-22T12:25:18;18.50;99.90
44707;DHT22;30433;45.596;8.408;2024-03-22T12:31:20;18.60;99.90
44707;DHT22;30433;45.596;8.408;2024-03-22T12:37:23;18.80;99.90
44707;DHT22;30433;45.596;8.408;2024-03-22T12:43:26;18.80;99.90
44707;DHT22;30433;45.596;8.408;2024-03-22T12:49:28;18.80;99.90
44707;DHT22;30433;45.596;8.408;2024-03-22T12:55:31;18.90;99.90
44707;DHT22;30433;45.596;8.408;2024-03-22T13:01:34;18.80;99.90
44707;DHT22;30433;45.596;8.408;2024-03-22T13:07:37;18.50;99.90
44707;DHT22;30433;45.596;8.408;2024-03-22T13:13:39;18.60;99.90
44707;DHT22;30433;45.596;8.408;2024-03-22T13:19:43;18.70;99.90
44707;DHT22;30433;45.596;8.408;2024-03-22T13:25:45;18.50;99.90
44707;DHT22;30433;45.596;8.408;2024-03-22T13:31:47;18.80;99.90
44707;DHT22;30433;45.596;8.408;2024-03-22T13:37:51;18.90;99.90
44707;DHT22;30433;45.596;8.408;2024-03-22T13:43:54;18.90;99.90
44707;DHT22;30433;45.596;8.408;2024-03-22T13:49:56;18.90;99.90
44707;DHT22;30433;45.596;8.408;2024-03-22T13:56:00;18.80;99.90
44707;DHT22;30433;45.596;8.408;2024-03-22T14:02:03;19.00;99.90
44707;DHT22;30433;45.596;8.408;2024-03-22T14:08:06;18.60;99.90
44707;DHT22;30433;45.596;8.408;2024-03-22T14:14:10;18.70;99.90
44707;DHT22;30433;45.596;8.408;2024-03-22T14:20:14;18.60;99.90
44707;DHT22;30433;45.596;8.408;2024-03-22T14:26:18;18.60;99.80
44707;DHT22;30433;45.596;8.408;2024-03-22T14:32:22;18.50;99.90
44707;DHT22;30433;45.596;8.408;2024-03-22T14:38:24;18.30;99.90
44707;DHT22;30433;45.596;8.408;2024-03-22T14:44:26;18.50;99.90
44707;DHT22;30433;45.596;8.408;2024-03-22T14:50:35;18.50;99.00
44707;DHT22;30433;45.596;8.408;2024-03-22T14:56:39;18.50;98.30
44707;DHT22;30433;45.596;8.408;2024-03-22T15:02:41;18.50;98.80
44707;DHT22;30433;45.596;8.408;2024-03-22T15:08:45;18.30;99.90
44707;DHT22;30433;45.596;8.408;2024-03-22T15:14:47;18.40;99.70
44707;DHT22;30433;45.596;8.408;2024-03-22T15:20:50;18.30;99.00
44707;DHT22;30433;45.596;8.408;2024-03-22T15:26:54;18.30;98.10
44707;DHT22;30433;45.596;8.408;2024-03-22T15:32:57;18.20;99.90
44707;DHT22;30433;45.596;8.408;2024-03-22T15:38:59;18.30;99.50
44707;DHT22;30433;45.596;8.408;2024-03-22T15:45:03;18.20;99.70
44707;DHT22;30433;45.596;8.408;2024-03-22T15:51:06;18.10;99.60
44707;DHT22;30433;45.596;8.408;2024-03-22T15:57:08;18.10;99.90
44707;DHT22;30433;45.596;8.408;2024-03-22T16:03:11;18.10;99.90
44707;DHT22;30433;45.596;8.408;2024-03-22T16:09:14;17.90;99.90
44707;DHT22;30433;45.596;8.408;2024-03-22T16:15:17;17.90;99.90
44707;DHT22;30433;45.596;8.408;2024-03-22T16:21:21;17.80;99.60
44707;DHT22;30433;45.596;8.408;2024-03-22T16:27:23;17.70;99.90
44707;DHT22;30433;45.596;8.408;2024-03-22T16:33:26;17.70;99.90
44707;DHT22;30433;45.596;8.408;2024-03-22T16:39:29;17.70;99.90
44707;DHT22;30433;45.596;8.408;2024-03-22T16:45:31;17.60;99.90
44707;DHT22;30433;45.596;8.408;2024-03-22T16:51:34;17.60;99.90
44707;DHT22;30433;45.596;8.408;2024-03-22T16:57:37;17.50;99.90
44707;DHT22;30433;45.596;8.408;2024-03-22T17:03:39;17.30;99.90
44707;DHT22;30433;45.596;8.408;2024-03-22T17:09:43;16.80;99.90
44707;DHT22;30433;45.596;8.408;2024-03-22T17:15:46;16.70;99.90
44707;DHT22;30433;45.596;8.408;2024-03-22T17:21:48;16.50;99.90
44707;DHT22;30433;45.596;8.408;2024-03-22T17:27:50;16.50;99.90
44707;DHT22;30433;45.596;8.408;2024-03-22T17:33:54;16.40;99.90
44707;DHT22;30433;45.596;8.408;2024-03-22T17:39:56;16.20;99.90
44707;DHT22;30433;45.596;8.408;2024-03-22T17:45:58;16.00;99.90
44707;DHT22;30433;45.596;8.408;2024-03-22T17:52:02;16.00;99.90
44707;DHT22;30433;45.596;8.408;2024-03-22T17:58:04;15.60;99.90
44707;DHT22;30433;45.596;8.408;2024-03-22T18:04:07;15.40;99.90
44707;DHT22;30433;45.596;8.408;2024-03-22T18:10:11;15.00;99.90
44707;DHT22;30433;45.596;8.408;2024-03-22T18:16:13;15.50;99.90
44707;DHT22;30433;45.596;8.408;2024-03-22T18:22:15;14.90;99.90
44707;DHT22;30433;45.596;8.408;2024-03-22T18:28:19;14.50;99.90
44707;DHT22;30433;45.596;8.408;2024-03-22T18:34:21;14.10;99.90
44707;DHT22;30433;45.596;8.408;2024-03-22T18:40:24;14.30;99.90
44707;DHT22;30433;45.596;8.408;2024-03-22T18:46:27;14.00;99.90
44707;DHT22;30433;45.596;8.408;2024-03-22T18:52:29;14.10;99.90
44707;DHT22;30433;45.596;8.408;2024-03-22T18:58:32;13.90;99.90
44707;DHT22;30433;45.596;8.408;2024-03-22T19:04:35;13.90;99.90
44707;DHT22;30433;45.596;8.408;2024-03-22T19:10:38;13.80;99.90
44707;DHT22;30433;45.596;8.408;2024-03-22T19:16:40;13.70;99.90
44707;DHT22;30433;45.596;8.408;2024-03-22T19:22:44;13.70;99.90
44707;DHT22;30433;45.596;8.408;2024-03-22T19:28:47;12.90;99.90
44707;DHT22;30433;45.596;8.408;2024-03-22T19:34:49;13.00;99.90
44707;DHT22;30433;45.596;8.408;2024-03-22T19:40:53;13.20;99.90
44707;DHT22;30433;45.596;8.408;2024-03-22T19:46:55;12.80;99.90
44707;DHT22;30433;45.596;8.408;2024-03-22T19:52:59;12.50;99.90
44707;DHT22;30433;45.596;8.408;2024-03-22T19:59:02;12.00;99.90
44707;DHT22;30433;45.596;8.408;2024-03-22T20:05:05;12.20;99.90
44707;DHT22;30433;45.596;8.408;2024-03-22T20:11:07;12.20;99.90
44707;DHT22;30433;45.596;8.408;2024-03-22T20:17:10;12.50;99.90
44707;DHT22;30433;45.596;8.408;2024-03-22T20:23:13;12.20;99.90
44707;DHT22;30433;45.596;8.408;2024-03-22T20:29:15;12.30;99.90
44707;DHT22;30433;45.596;8.408;2024-03-22T20:35:19;11.50;99.90
